OCN23T EDDH-LOWW
Flight info
| Callsign | OCN23T |
|---|---|
| Flight time | 1h 15m |
| Altitude | 37000 |
| Route | RAMAR6G RAMAR Z998 RATMO DCT HDO DCT EVIKU DCT BITSI DCT MIKOV MIKOV8W |
| Aircraft | A320/M-SDE3FGHIRWY/LB1 |
Departure
| Time | 2026-05-06 19:52 |
|---|---|
| Airport | Hamburg Helmut Schmidt Airport (EDDH) |
Arrival
| Time | 2026-05-06 21:08 |
|---|---|
| Airport | Vienna International Airport (LOWW) |
| Time | Latitude | Longitude | Altitude | Speed | Heading |
|---|---|---|---|---|---|
| 2026-05-06 19:22 | 53.62809 | 10.00244 | 41 ft | 0 kts | 62° |
| 2026-05-06 19:44 | 53.62799 | 10.00215 | 43 ft | 3 kts | 62° |
| 2026-05-06 19:44 | 53.62786 | 10.00179 | 41 ft | 2 kts | 50° |
| 2026-05-06 19:44 | 53.62768 | 10.00151 | 43 ft | 3 kts | 12° |
| 2026-05-06 19:45 | 53.62753 | 10.00151 | 43 ft | 0 kts | 333° |
| 2026-05-06 19:48 | 53.62759 | 10.00146 | 42 ft | 5 kts | 333° |
| 2026-05-06 19:48 | 53.62822 | 10.00091 | 45 ft | 8 kts | 333° |
| 2026-05-06 19:48 | 53.62830 | 10.00084 | 45 ft | 0 kts | 333° |
| 2026-05-06 19:48 | 53.62839 | 10.00076 | 45 ft | 6 kts | 333° |
| 2026-05-06 19:49 | 53.62874 | 10.00051 | 44 ft | 5 kts | 348° |
| 2026-05-06 19:49 | 53.62898 | 10.00039 | 45 ft | 3 kts | 343° |
| 2026-05-06 19:49 | 53.62899 | 10.00038 | 45 ft | 0 kts | 343° |
| 2026-05-06 19:49 | 53.62910 | 10.00024 | 45 ft | 10 kts | 318° |
| 2026-05-06 19:50 | 53.62907 | 9.99956 | 45 ft | 2 kts | 240° |
| 2026-05-06 19:50 | 53.62899 | 9.99929 | 45 ft | 2 kts | 245° |
| 2026-05-06 19:50 | 53.62899 | 9.99928 | 45 ft | 0 kts | 245° |
| 2026-05-06 19:51 | 53.62899 | 9.99926 | 45 ft | 2 kts | 245° |
| 2026-05-06 19:51 | 53.62887 | 9.99885 | 44 ft | 0 kts | 245° |
| 2026-05-06 19:51 | 53.62876 | 9.99833 | 45 ft | 12 kts | 255° |
| 2026-05-06 19:51 | 53.62896 | 9.99745 | 46 ft | 16 kts | 320° |
| 2026-05-06 19:52 | 53.63227 | 9.99465 | 48 ft | 91 kts | 332° |
| 2026-05-06 19:52 | 53.63963 | 9.98809 | 48 ft | 142 kts | 334° |
| 2026-05-06 19:52 | 53.64916 | 9.97907 | 100 ft | 174 kts | 332° |
| 2026-05-06 19:52 | 53.66006 | 9.97031 | 721 ft | 174 kts | 334° |
| 2026-05-06 19:53 | 53.67099 | 9.96123 | 1467 ft | 175 kts | 332° |
| 2026-05-06 19:53 | 53.68249 | 9.95143 | 1898 ft | 196 kts | 335° |
| 2026-05-06 19:53 | 53.69655 | 9.94650 | 2309 ft | 216 kts | 0° |
| 2026-05-06 19:53 | 53.71167 | 9.94687 | 3085 ft | 219 kts | 0° |
| 2026-05-06 19:54 | 53.72675 | 9.95078 | 3886 ft | 223 kts | 22° |
| 2026-05-06 19:54 | 53.73955 | 9.96574 | 4526 ft | 236 kts | 49° |
| 2026-05-06 19:54 | 53.74844 | 9.99159 | 4952 ft | 260 kts | 64° |
| 2026-05-06 19:54 | 53.75640 | 10.01973 | 5036 ft | 271 kts | 64° |
| 2026-05-06 19:55 | 53.76462 | 10.04876 | 5008 ft | 271 kts | 64° |
| 2026-05-06 19:55 | 53.77292 | 10.07792 | 5577 ft | 278 kts | 64° |
| 2026-05-06 19:55 | 53.78126 | 10.10708 | 6626 ft | 277 kts | 64° |
| 2026-05-06 19:55 | 53.78973 | 10.13659 | 7540 ft | 280 kts | 64° |
| 2026-05-06 19:56 | 53.79828 | 10.16634 | 8410 ft | 283 kts | 64° |
| 2026-05-06 19:56 | 53.80398 | 10.18619 | 8972 ft | 286 kts | 64° |
| 2026-05-06 19:56 | 53.81283 | 10.21711 | 9699 ft | 291 kts | 64° |
| 2026-05-06 19:56 | 53.82169 | 10.24805 | 9929 ft | 292 kts | 64° |
| 2026-05-06 19:57 | 53.83073 | 10.27964 | 10013 ft | 312 kts | 64° |
| 2026-05-06 19:57 | 53.83954 | 10.31409 | 10010 ft | 327 kts | 72° |
| 2026-05-06 19:57 | 53.84383 | 10.35232 | 10012 ft | 334 kts | 86° |
| 2026-05-06 19:57 | 53.84244 | 10.39145 | 10015 ft | 336 kts | 101° |
| 2026-05-06 19:58 | 53.83726 | 10.42948 | 10009 ft | 327 kts | 103° |
| 2026-05-06 19:58 | 53.83209 | 10.46702 | 10012 ft | 327 kts | 103° |
| 2026-05-06 19:58 | 53.82703 | 10.50428 | 10002 ft | 321 kts | 103° |
| 2026-05-06 19:58 | 53.82468 | 10.52164 | 10010 ft | 326 kts | 103° |
| 2026-05-06 20:00 | 53.82432 | 10.52428 | 10016 ft | 324 kts | 103° |
| 2026-05-06 20:01 | 53.81935 | 10.56096 | 10023 ft | 324 kts | 103° |
| 2026-05-06 20:01 | 53.81430 | 10.59787 | 10011 ft | 317 kts | 103° |
| 2026-05-06 20:01 | 53.80931 | 10.63417 | 10010 ft | 316 kts | 103° |
| 2026-05-06 20:01 | 53.80423 | 10.67059 | 10007 ft | 321 kts | 105° |
| 2026-05-06 20:02 | 53.79605 | 10.70677 | 10448 ft | 336 kts | 117° |
| 2026-05-06 20:02 | 53.78395 | 10.74121 | 11186 ft | 342 kts | 122° |
| 2026-05-06 20:02 | 53.77133 | 10.77535 | 11957 ft | 346 kts | 122° |
| 2026-05-06 20:02 | 53.75852 | 10.81003 | 12697 ft | 350 kts | 122° |
| 2026-05-06 20:03 | 53.74556 | 10.84505 | 13413 ft | 353 kts | 122° |
| 2026-05-06 20:03 | 53.73246 | 10.88037 | 14106 ft | 357 kts | 122° |
| 2026-05-06 20:03 | 53.71851 | 10.91535 | 14771 ft | 361 kts | 129° |
| 2026-05-06 20:03 | 53.70094 | 10.94587 | 15434 ft | 364 kts | 140° |
| 2026-05-06 20:04 | 53.68001 | 10.97032 | 16079 ft | 367 kts | 149° |
| 2026-05-06 20:04 | 53.65817 | 10.99248 | 16712 ft | 370 kts | 149° |
| 2026-05-06 20:04 | 53.63567 | 11.01543 | 17340 ft | 374 kts | 149° |
| 2026-05-06 20:04 | 53.61359 | 11.03804 | 17939 ft | 377 kts | 149° |
| 2026-05-06 20:05 | 53.59080 | 11.06140 | 18523 ft | 381 kts | 149° |
| 2026-05-06 20:05 | 53.56807 | 11.08462 | 19094 ft | 384 kts | 149° |
| 2026-05-06 20:05 | 53.54575 | 11.10732 | 19635 ft | 387 kts | 149° |
| 2026-05-06 20:05 | 53.52197 | 11.13142 | 20191 ft | 390 kts | 149° |
| 2026-05-06 20:06 | 53.49859 | 11.15507 | 20711 ft | 393 kts | 149° |
| 2026-05-06 20:06 | 53.47502 | 11.17895 | 21222 ft | 396 kts | 149° |
| 2026-05-06 20:06 | 53.45137 | 11.20289 | 21724 ft | 399 kts | 149° |
| 2026-05-06 20:06 | 53.42759 | 11.22691 | 22195 ft | 402 kts | 149° |
| 2026-05-06 20:07 | 53.40346 | 11.25120 | 22680 ft | 405 kts | 149° |
| 2026-05-06 20:07 | 53.37929 | 11.27549 | 23133 ft | 408 kts | 149° |
| 2026-05-06 20:07 | 53.35477 | 11.30014 | 23577 ft | 411 kts | 149° |
| 2026-05-06 20:07 | 53.33025 | 11.32478 | 24016 ft | 413 kts | 149° |
| 2026-05-06 20:08 | 53.30555 | 11.34956 | 24446 ft | 416 kts | 149° |
| 2026-05-06 20:08 | 53.28063 | 11.37460 | 24854 ft | 419 kts | 148° |
| 2026-05-06 20:08 | 53.25697 | 11.40356 | 25249 ft | 422 kts | 139° |
| 2026-05-06 20:08 | 53.23538 | 11.43675 | 25630 ft | 424 kts | 137° |
| 2026-05-06 20:09 | 53.21365 | 11.47026 | 26019 ft | 427 kts | 137° |
| 2026-05-06 20:09 | 53.19169 | 11.50392 | 26390 ft | 429 kts | 137° |
| 2026-05-06 20:09 | 53.16968 | 11.53750 | 26762 ft | 431 kts | 137° |
| 2026-05-06 20:09 | 53.14718 | 11.57180 | 27127 ft | 434 kts | 137° |
| 2026-05-06 20:10 | 53.12490 | 11.60583 | 27481 ft | 436 kts | 137° |
| 2026-05-06 20:10 | 53.10272 | 11.63970 | 27827 ft | 439 kts | 137° |
| 2026-05-06 20:10 | 53.08011 | 11.67422 | 28175 ft | 441 kts | 137° |
| 2026-05-06 20:10 | 53.05725 | 11.70909 | 28500 ft | 443 kts | 137° |
| 2026-05-06 20:11 | 53.03445 | 11.74377 | 28832 ft | 445 kts | 137° |
| 2026-05-06 20:11 | 53.01144 | 11.77873 | 29139 ft | 447 kts | 137° |
| 2026-05-06 20:11 | 52.98929 | 11.81471 | 29388 ft | 448 kts | 131° |
| 2026-05-06 20:11 | 52.96999 | 11.85525 | 29638 ft | 450 kts | 127° |
| 2026-05-06 20:12 | 52.95111 | 11.89686 | 29885 ft | 452 kts | 127° |
| 2026-05-06 20:12 | 52.93207 | 11.93858 | 30140 ft | 454 kts | 127° |
| 2026-05-06 20:12 | 52.91298 | 11.98019 | 30398 ft | 455 kts | 127° |
| 2026-05-06 20:12 | 52.89366 | 12.02218 | 30641 ft | 457 kts | 127° |
| 2026-05-06 20:13 | 52.87443 | 12.06389 | 30882 ft | 459 kts | 127° |
| 2026-05-06 20:13 | 52.85500 | 12.10608 | 31137 ft | 460 kts | 127° |
| 2026-05-06 20:13 | 52.83559 | 12.14830 | 31392 ft | 459 kts | 127° |
| 2026-05-06 20:13 | 52.81635 | 12.19014 | 31639 ft | 459 kts | 127° |
| 2026-05-06 20:14 | 52.79695 | 12.23227 | 31892 ft | 458 kts | 127° |
| 2026-05-06 20:14 | 52.77764 | 12.27405 | 32143 ft | 458 kts | 127° |
| 2026-05-06 20:14 | 52.75807 | 12.31622 | 32393 ft | 457 kts | 128° |
| 2026-05-06 20:14 | 52.73866 | 12.35791 | 32644 ft | 457 kts | 128° |
| 2026-05-06 20:15 | 52.71921 | 12.39910 | 32896 ft | 456 kts | 130° |
| 2026-05-06 20:15 | 52.69705 | 12.43644 | 33142 ft | 456 kts | 139° |
| 2026-05-06 20:15 | 52.67189 | 12.46801 | 33386 ft | 455 kts | 145° |
| 2026-05-06 20:15 | 52.64581 | 12.49775 | 33641 ft | 455 kts | 145° |
| 2026-05-06 20:16 | 52.61979 | 12.52741 | 33900 ft | 454 kts | 145° |
| 2026-05-06 20:16 | 52.59391 | 12.55685 | 34139 ft | 453 kts | 146° |
| 2026-05-06 20:16 | 52.56791 | 12.58640 | 34391 ft | 453 kts | 145° |
| 2026-05-06 20:16 | 52.54200 | 12.61584 | 34641 ft | 453 kts | 145° |
| 2026-05-06 20:17 | 52.51609 | 12.64525 | 34891 ft | 452 kts | 146° |
| 2026-05-06 20:17 | 52.49000 | 12.67482 | 35139 ft | 452 kts | 146° |
| 2026-05-06 20:17 | 52.46410 | 12.70413 | 35393 ft | 451 kts | 146° |
| 2026-05-06 20:17 | 52.43837 | 12.73320 | 35646 ft | 450 kts | 146° |
| 2026-05-06 20:18 | 52.41246 | 12.76243 | 35894 ft | 450 kts | 146° |
| 2026-05-06 20:18 | 52.38681 | 12.79132 | 36131 ft | 449 kts | 146° |
| 2026-05-06 20:18 | 52.36100 | 12.82027 | 36385 ft | 449 kts | 146° |
| 2026-05-06 20:18 | 52.33523 | 12.84916 | 36641 ft | 448 kts | 146° |
| 2026-05-06 20:19 | 52.30945 | 12.87807 | 36887 ft | 448 kts | 146° |
| 2026-05-06 20:19 | 52.28390 | 12.90673 | 36993 ft | 449 kts | 146° |
| 2026-05-06 20:19 | 52.23243 | 12.96427 | 37009 ft | 449 kts | 146° |
| 2026-05-06 20:20 | 52.18099 | 13.02161 | 37009 ft | 449 kts | 146° |
| 2026-05-06 20:20 | 52.12945 | 13.07875 | 37009 ft | 449 kts | 146° |
| 2026-05-06 20:21 | 52.07777 | 13.13594 | 37009 ft | 448 kts | 146° |
| 2026-05-06 20:21 | 52.02622 | 13.19300 | 37010 ft | 449 kts | 146° |
| 2026-05-06 20:22 | 51.97447 | 13.24995 | 37010 ft | 449 kts | 146° |
| 2026-05-06 20:22 | 51.92280 | 13.30661 | 37010 ft | 449 kts | 146° |
| 2026-05-06 20:23 | 51.87077 | 13.36362 | 37011 ft | 449 kts | 146° |
| 2026-05-06 20:23 | 51.81893 | 13.42027 | 37012 ft | 449 kts | 146° |
| 2026-05-06 20:24 | 51.79309 | 13.44846 | 36695 ft | 446 kts | 146° |
| 2026-05-06 20:24 | 51.76748 | 13.47631 | 36072 ft | 445 kts | 146° |
| 2026-05-06 20:24 | 51.74180 | 13.50422 | 35412 ft | 446 kts | 146° |
| 2026-05-06 20:24 | 51.71614 | 13.53213 | 35072 ft | 445 kts | 146° |
| 2026-05-06 20:25 | 51.67294 | 13.57894 | 35015 ft | 447 kts | 146° |
| 2026-05-06 20:25 | 51.62151 | 13.63441 | 35009 ft | 448 kts | 146° |
| 2026-05-06 20:26 | 51.56973 | 13.69010 | 35012 ft | 448 kts | 146° |
| 2026-05-06 20:26 | 51.51800 | 13.74567 | 35005 ft | 448 kts | 146° |
| 2026-05-06 20:27 | 51.46608 | 13.80132 | 35009 ft | 448 kts | 146° |
| 2026-05-06 20:27 | 51.41433 | 13.85662 | 35006 ft | 448 kts | 146° |
| 2026-05-06 20:28 | 51.36234 | 13.91210 | 35002 ft | 447 kts | 146° |
| 2026-05-06 20:28 | 51.31059 | 13.96716 | 35000 ft | 447 kts | 147° |
| 2026-05-06 20:29 | 51.25874 | 14.02198 | 34986 ft | 447 kts | 147° |
| 2026-05-06 20:29 | 51.20789 | 14.07562 | 35001 ft | 448 kts | 147° |
| 2026-05-06 20:30 | 51.13034 | 14.15739 | 35001 ft | 448 kts | 147° |
| 2026-05-06 20:31 | 51.07810 | 14.21228 | 34986 ft | 448 kts | 147° |
| 2026-05-06 20:31 | 51.02598 | 14.26682 | 35000 ft | 448 kts | 147° |
| 2026-05-06 20:32 | 50.97385 | 14.32118 | 34985 ft | 449 kts | 147° |
| 2026-05-06 20:32 | 50.91945 | 14.36916 | 34986 ft | 448 kts | 160° |
| 2026-05-06 20:33 | 50.85909 | 14.39429 | 34988 ft | 448 kts | 167° |
| 2026-05-06 20:33 | 50.79887 | 14.41664 | 35003 ft | 448 kts | 167° |
| 2026-05-06 20:34 | 50.73822 | 14.43926 | 34998 ft | 448 kts | 167° |
| 2026-05-06 20:34 | 50.67759 | 14.46166 | 34998 ft | 448 kts | 167° |
| 2026-05-06 20:35 | 50.61764 | 14.48386 | 34995 ft | 448 kts | 167° |
| 2026-05-06 20:35 | 50.55696 | 14.50618 | 34997 ft | 448 kts | 167° |
| 2026-05-06 20:36 | 50.49625 | 14.52963 | 34986 ft | 448 kts | 161° |
| 2026-05-06 20:36 | 50.44124 | 14.57444 | 35003 ft | 448 kts | 142° |
| 2026-05-06 20:37 | 50.39617 | 14.63992 | 34986 ft | 448 kts | 136° |
| 2026-05-06 20:37 | 50.35127 | 14.70795 | 34998 ft | 449 kts | 136° |
| 2026-05-06 20:38 | 50.30612 | 14.77591 | 35001 ft | 449 kts | 136° |
| 2026-05-06 20:38 | 50.26203 | 14.84218 | 35040 ft | 421 kts | 136° |
| 2026-05-06 20:39 | 50.21937 | 14.90620 | 35018 ft | 433 kts | 136° |
| 2026-05-06 20:39 | 50.19748 | 14.93900 | 35479 ft | 437 kts | 142° |
| 2026-05-06 20:39 | 50.17550 | 14.97188 | 35476 ft | 439 kts | 142° |
| 2026-05-06 20:40 | 50.13141 | 15.03774 | 35471 ft | 440 kts | 142° |
| 2026-05-06 20:40 | 50.10920 | 15.07082 | 34729 ft | 445 kts | 142° |
| 2026-05-06 20:40 | 50.08669 | 15.10424 | 34024 ft | 446 kts | 142° |
| 2026-05-06 20:40 | 50.06425 | 15.13764 | 33435 ft | 442 kts | 142° |
| 2026-05-06 20:41 | 50.04222 | 15.17043 | 32695 ft | 441 kts | 142° |
| 2026-05-06 20:41 | 50.01994 | 15.20358 | 31996 ft | 440 kts | 142° |
| 2026-05-06 20:41 | 49.99788 | 15.23638 | 31713 ft | 439 kts | 142° |
| 2026-05-06 20:41 | 49.97578 | 15.26916 | 31452 ft | 437 kts | 142° |
| 2026-05-06 20:42 | 49.95380 | 15.30164 | 31191 ft | 436 kts | 142° |
| 2026-05-06 20:42 | 49.93159 | 15.33432 | 30925 ft | 434 kts | 142° |
| 2026-05-06 20:42 | 49.90971 | 15.36646 | 30686 ft | 433 kts | 142° |
| 2026-05-06 20:42 | 49.88781 | 15.39867 | 30444 ft | 431 kts | 142° |
| 2026-05-06 20:43 | 49.86609 | 15.43061 | 30190 ft | 430 kts | 142° |
| 2026-05-06 20:43 | 49.84472 | 15.46199 | 29950 ft | 428 kts | 142° |
| 2026-05-06 20:43 | 49.82284 | 15.49405 | 29742 ft | 426 kts | 142° |
| 2026-05-06 20:44 | 49.77972 | 15.55707 | 29770 ft | 427 kts | 143° |
| 2026-05-06 20:44 | 49.73665 | 15.61993 | 29764 ft | 427 kts | 143° |
| 2026-05-06 20:45 | 49.69337 | 15.68301 | 29763 ft | 427 kts | 143° |
| 2026-05-06 20:45 | 49.64975 | 15.74641 | 29713 ft | 426 kts | 143° |
| 2026-05-06 20:45 | 49.62841 | 15.77737 | 29019 ft | 424 kts | 143° |
| 2026-05-06 20:46 | 49.60663 | 15.80877 | 27793 ft | 433 kts | 143° |
| 2026-05-06 20:46 | 49.58444 | 15.84062 | 26653 ft | 439 kts | 143° |
| 2026-05-06 20:46 | 49.56181 | 15.87306 | 25460 ft | 447 kts | 142° |
| 2026-05-06 20:46 | 49.53905 | 15.90580 | 24599 ft | 445 kts | 142° |
| 2026-05-06 20:47 | 49.51663 | 15.93818 | 23998 ft | 442 kts | 142° |
| 2026-05-06 20:47 | 49.49427 | 15.97044 | 23801 ft | 442 kts | 142° |
| 2026-05-06 20:47 | 49.47176 | 16.00282 | 23722 ft | 441 kts | 142° |
| 2026-05-06 20:47 | 49.44930 | 16.03467 | 23745 ft | 440 kts | 145° |
| 2026-05-06 20:48 | 49.42381 | 16.06070 | 23740 ft | 432 kts | 156° |
| 2026-05-06 20:48 | 49.39769 | 16.08309 | 22890 ft | 432 kts | 156° |
| 2026-05-06 20:48 | 49.37139 | 16.10542 | 21421 ft | 441 kts | 156° |
| 2026-05-06 20:48 | 49.34425 | 16.12827 | 20314 ft | 444 kts | 155° |
| 2026-05-06 20:49 | 49.31769 | 16.15070 | 20032 ft | 416 kts | 155° |
| 2026-05-06 20:49 | 49.29342 | 16.17131 | 19881 ft | 386 kts | 156° |
| 2026-05-06 20:49 | 49.27079 | 16.19073 | 19665 ft | 363 kts | 155° |
| 2026-05-06 20:49 | 49.24931 | 16.20970 | 19080 ft | 353 kts | 155° |
| 2026-05-06 20:50 | 49.22826 | 16.22855 | 18364 ft | 348 kts | 155° |
| 2026-05-06 20:50 | 49.20734 | 16.24734 | 17575 ft | 345 kts | 154° |
| 2026-05-06 20:50 | 49.18655 | 16.26600 | 16774 ft | 341 kts | 154° |
| 2026-05-06 20:50 | 49.16640 | 16.28406 | 16015 ft | 338 kts | 154° |
| 2026-05-06 20:51 | 49.14589 | 16.30239 | 15268 ft | 334 kts | 154° |
| 2026-05-06 20:51 | 49.12581 | 16.32024 | 14447 ft | 343 kts | 153° |
| 2026-05-06 20:51 | 49.10385 | 16.33957 | 13936 ft | 384 kts | 153° |
| 2026-05-06 20:51 | 49.07977 | 16.36074 | 13748 ft | 408 kts | 153° |
| 2026-05-06 20:52 | 49.05492 | 16.38274 | 13744 ft | 415 kts | 153° |
| 2026-05-06 20:52 | 49.03833 | 16.39747 | 13713 ft | 417 kts | 152° |
| 2026-05-06 20:52 | 49.01316 | 16.41983 | 13469 ft | 415 kts | 152° |
| 2026-05-06 20:52 | 48.98807 | 16.44209 | 13215 ft | 415 kts | 152° |
| 2026-05-06 20:53 | 48.96358 | 16.46379 | 12986 ft | 414 kts | 152° |
| 2026-05-06 20:53 | 48.93868 | 16.48582 | 12840 ft | 413 kts | 152° |
| 2026-05-06 20:53 | 48.91359 | 16.50800 | 12700 ft | 412 kts | 152° |
| 2026-05-06 20:53 | 48.88901 | 16.52969 | 12612 ft | 414 kts | 152° |
| 2026-05-06 20:54 | 48.86388 | 16.55175 | 12589 ft | 412 kts | 153° |
| 2026-05-06 20:54 | 48.83933 | 16.57316 | 12557 ft | 411 kts | 153° |
| 2026-05-06 20:54 | 48.81450 | 16.59480 | 12473 ft | 407 kts | 153° |
| 2026-05-06 20:54 | 48.79022 | 16.61510 | 12094 ft | 391 kts | 158° |
| 2026-05-06 20:55 | 48.76521 | 16.62741 | 11707 ft | 362 kts | 170° |
| 2026-05-06 20:55 | 48.74148 | 16.63534 | 11351 ft | 337 kts | 170° |
| 2026-05-06 20:55 | 48.71953 | 16.64267 | 11215 ft | 310 kts | 170° |
| 2026-05-06 20:55 | 48.69925 | 16.64941 | 11086 ft | 286 kts | 170° |
| 2026-05-06 20:56 | 48.68051 | 16.65560 | 10963 ft | 266 kts | 171° |
| 2026-05-06 20:56 | 48.66299 | 16.66136 | 10833 ft | 248 kts | 171° |
| 2026-05-06 20:56 | 48.64675 | 16.66668 | 10696 ft | 232 kts | 171° |
| 2026-05-06 20:56 | 48.63092 | 16.67183 | 10275 ft | 228 kts | 171° |
| 2026-05-06 20:57 | 48.61534 | 16.67684 | 9572 ft | 238 kts | 171° |
| 2026-05-06 20:57 | 48.59896 | 16.68156 | 8973 ft | 239 kts | 177° |
| 2026-05-06 20:57 | 48.58235 | 16.68153 | 8428 ft | 235 kts | 189° |
| 2026-05-06 20:57 | 48.56641 | 16.67602 | 7911 ft | 233 kts | 201° |
| 2026-05-06 20:58 | 48.55190 | 16.66543 | 7410 ft | 231 kts | 214° |
| 2026-05-06 20:58 | 48.53890 | 16.65154 | 6922 ft | 229 kts | 217° |
| 2026-05-06 20:58 | 48.52594 | 16.63756 | 6425 ft | 229 kts | 217° |
| 2026-05-06 20:58 | 48.51296 | 16.62363 | 5956 ft | 228 kts | 217° |
| 2026-05-06 20:59 | 48.50005 | 16.60980 | 5467 ft | 226 kts | 217° |
| 2026-05-06 20:59 | 48.48728 | 16.59608 | 5025 ft | 224 kts | 218° |
| 2026-05-06 20:59 | 48.47459 | 16.58242 | 4981 ft | 225 kts | 218° |
| 2026-05-06 20:59 | 48.46186 | 16.56873 | 4987 ft | 226 kts | 218° |
| 2026-05-06 21:00 | 48.44897 | 16.55491 | 4989 ft | 227 kts | 218° |
| 2026-05-06 21:00 | 48.43605 | 16.54110 | 4995 ft | 228 kts | 217° |
| 2026-05-06 21:00 | 48.42304 | 16.52719 | 4995 ft | 228 kts | 218° |
| 2026-05-06 21:00 | 48.41022 | 16.51345 | 4996 ft | 228 kts | 218° |
| 2026-05-06 21:01 | 48.39751 | 16.49984 | 4995 ft | 220 kts | 218° |
| 2026-05-06 21:01 | 48.38510 | 16.48663 | 4995 ft | 215 kts | 216° |
| 2026-05-06 21:01 | 48.37177 | 16.47813 | 4997 ft | 206 kts | 195° |
| 2026-05-06 21:01 | 48.35771 | 16.47744 | 4999 ft | 199 kts | 175° |
| 2026-05-06 21:02 | 48.34440 | 16.48263 | 5013 ft | 197 kts | 169° |
| 2026-05-06 21:02 | 48.33118 | 16.48828 | 4846 ft | 196 kts | 169° |
| 2026-05-06 21:02 | 48.31860 | 16.49365 | 4606 ft | 194 kts | 169° |
| 2026-05-06 21:02 | 48.30577 | 16.49912 | 4353 ft | 192 kts | 170° |
| 2026-05-06 21:03 | 48.29323 | 16.50449 | 4118 ft | 182 kts | 170° |
| 2026-05-06 21:03 | 48.28133 | 16.50958 | 3886 ft | 170 kts | 170° |
| 2026-05-06 21:03 | 48.27031 | 16.51428 | 3659 ft | 159 kts | 171° |
| 2026-05-06 21:03 | 48.26008 | 16.51863 | 3473 ft | 153 kts | 172° |
| 2026-05-06 21:04 | 48.25020 | 16.52282 | 3284 ft | 149 kts | 172° |
| 2026-05-06 21:04 | 48.24067 | 16.52689 | 3111 ft | 139 kts | 172° |
| 2026-05-06 21:04 | 48.23144 | 16.53081 | 2922 ft | 134 kts | 172° |
| 2026-05-06 21:04 | 48.22272 | 16.53451 | 2747 ft | 126 kts | 172° |
| 2026-05-06 21:05 | 48.21453 | 16.53797 | 2571 ft | 120 kts | 170° |
| 2026-05-06 21:05 | 48.20656 | 16.54134 | 2429 ft | 121 kts | 170° |
| 2026-05-06 21:05 | 48.19826 | 16.54489 | 2275 ft | 123 kts | 169° |
| 2026-05-06 21:05 | 48.19027 | 16.54874 | 2132 ft | 123 kts | 165° |
| 2026-05-06 21:06 | 48.18226 | 16.55326 | 1975 ft | 120 kts | 165° |
| 2026-05-06 21:06 | 48.17407 | 16.55779 | 1815 ft | 131 kts | 163° |
| 2026-05-06 21:06 | 48.16590 | 16.56148 | 1717 ft | 115 kts | 171° |
| 2026-05-06 21:06 | 48.15827 | 16.56400 | 1547 ft | 112 kts | 171° |
| 2026-05-06 21:07 | 48.15036 | 16.56696 | 1380 ft | 122 kts | 168° |
| 2026-05-06 21:07 | 48.14226 | 16.57015 | 1221 ft | 122 kts | 166° |
| 2026-05-06 21:07 | 48.13430 | 16.57345 | 1004 ft | 124 kts | 165° |
| 2026-05-06 21:07 | 48.12584 | 16.57665 | 719 ft | 127 kts | 170° |
| 2026-05-06 21:08 | 48.11782 | 16.57905 | 614 ft | 114 kts | 165° |
| 2026-05-06 21:08 | 48.11115 | 16.58178 | 611 ft | 84 kts | 165° |
| 2026-05-06 21:08 | 48.10682 | 16.58343 | 602 ft | 26 kts | 166° |
| 2026-05-06 21:08 | 48.10526 | 16.58422 | 596 ft | 18 kts | 159° |
| 2026-05-06 21:09 | 48.10440 | 16.58451 | 596 ft | 15 kts | 182° |
| 2026-05-06 21:09 | 48.10353 | 16.58453 | 598 ft | 12 kts | 177° |
| 2026-05-06 21:09 | 48.10226 | 16.58425 | 597 ft | 22 kts | 194° |
| 2026-05-06 21:09 | 48.10098 | 16.58374 | 601 ft | 7 kts | 197° |
| 2026-05-06 21:10 | 48.10097 | 16.58373 | 602 ft | 0 kts | 197° |
| 2026-05-06 21:10 | 48.10090 | 16.58360 | 602 ft | 5 kts | 250° |
| 2026-05-06 21:11 | 48.10079 | 16.58285 | 603 ft | 0 kts | 268° |
| 2026-05-06 21:11 | 48.10079 | 16.58280 | 603 ft | 4 kts | 268° |
| 2026-05-06 21:11 | 48.10044 | 16.58225 | 612 ft | 6 kts | 170° |